Latest Weather Observations for Sheffield

IDT60801

Issued at 4:05 pm EST Thursday 21 August 2014 (issued every 30 minutes, with the page automatically refreshed every 10 minutes)

About weather observations | Map of weather stations | Latest weather observations for TAS | Other Formats
Station Details ID: 091291 Name: SHEFFIELD SCHOOL FARM Lat: -41.39 Lon: 146.32 Height: 294.2 m
Data from the previous 72 hours. | See also: Recent months at Sheffield
Date/Time
EST
Temp
°C
App
Temp
°C
Dew
Point
Rel
Hum
%
Delta-T
°C
Wind Press
QNH
hPa
Press
MSL
hPa
Rain
since 9 am
mm
Dir
 
Spd
km/h
Gust
km/h
Spd
kts
Gust
kts
21/04:00pm 11.0 8.6 6.9 76 2.0 ESE 9 11 5 6 1030.7 1031.3 0.0
21/03:30pm 11.6 9.3 7.5 76 2.0 ESE 9 11 5 6 1030.6 - 0.0
21/03:00pm 11.0 8.8 6.4 73 2.2 ESE 7 11 4 6 1030.7 1031.3 0.0
21/02:30pm 11.1 8.6 6.5 73 2.2 ESE 9 13 5 7 1030.7 - 0.0
21/02:00pm 11.0 9.0 6.9 76 2.0 E 7 11 4 6 1030.8 1031.4 0.0
21/01:30pm 10.8 8.1 5.8 71 2.4 E 9 13 5 7 1031.0 - 0.0
21/01:00pm 10.9 7.5 6.1 72 2.3 E 13 17 7 9 1031.2 1031.8 0.0
21/12:30pm 11.0 7.6 6.0 71 2.4 E 13 17 7 9 1031.3 - 0.0
21/12:00pm 11.1 7.6 5.6 69 2.6 E 13 19 7 10 1031.6 1032.2 0.0
21/11:30am 10.8 7.2 5.1 68 2.6 E 13 17 7 9 1031.9 - 0.0
21/11:00am 10.9 8.5 7.0 77 1.9 E 9 13 5 7 1032.1 1032.8 0.0
21/10:30am 10.2 7.0 6.7 79 1.7 ESE 13 15 7 8 1032.1 - 0.0
21/10:00am 9.7 7.7 7.1 84 1.2 ESE 7 11 4 6 1032.2 1032.9 0.0
21/09:30am 7.9 5.7 6.2 89 0.8 ESE 7 9 4 5 1032.2 - 0.0
21/09:00am 6.4 4.1 5.5 94 0.4 ESE 7 9 4 5 1032.2 1032.9 0.0
21/08:30am 5.4 3.2 5.3 99 0.0 SE 6 7 3 4 1032.1 - 0.0
21/08:00am 4.4 2.8 4.3 99 0.0 SE 2 4 1 2 1031.8 1032.4 0.0
21/07:30am 4.2 2.9 4.2 100 0.0 CALM 0 0 0 0 1031.5 - 0.0
21/07:00am 3.9 2.5 3.8 99 0.0 CALM 0 0 0 0 1031.1 1031.7 0.0
21/06:30am 3.5 2.1 3.4 99 0.0 CALM 0 0 0 0 1030.8 - 0.0
21/06:00am 3.5 1.3 3.4 99 0.0 ESE 4 4 2 2 1030.6 1031.2 0.0
21/05:30am 3.6 2.2 3.5 99 0.0 CALM 0 0 0 0 1030.5 - 0.0
21/05:00am 3.6 2.2 3.5 99 0.0 CALM 0 0 0 0 1030.3 1030.9 0.0
21/04:30am 4.5 3.1 3.8 95 0.3 CALM 0 2 0 1 1030.2 - 0.0
21/04:00am 4.9 3.6 4.2 95 0.3 CALM 0 2 0 1 1030.1 1030.7 0.0
21/03:30am 5.2 3.2 4.3 94 0.4 WSW 4 6 2 3 1029.9 - 0.0
21/03:00am 4.7 3.0 4.0 95 0.3 SW 2 6 1 3 1029.7 1030.4 0.0
21/02:30am 4.8 2.8 4.4 97 0.2 SW 4 6 2 3 1029.9 - 0.0
21/02:00am 4.9 2.9 4.5 97 0.2 SE 4 6 2 3 1030.0 1030.6 0.0
21/01:30am 4.6 3.0 4.5 99 0.0 E 2 4 1 2 1030.0 - 0.0
21/01:00am 4.8 3.1 4.2 96 0.3 S 2 4 1 2 1029.9 1030.5 0.0
21/12:30am 4.7 2.7 4.4 98 0.1 SSW 4 6 2 3 1029.9 - 0.0
21/12:00am 4.8 3.6 4.7 99 0.0 NW 0 0 0 0 1029.7 1030.4 0.0
 
Date/Time
EST
Temp
°C
App
Temp
°C
Dew
Point
Rel
Hum
%
Delta-T
°C
Wind Press
QNH
hPa
Press
MSL
hPa
Rain
since 9 am
mm
Dir
 
Spd
km/h
Gust
km/h
Spd
kts
Gust
kts
20/11:30pm 4.6 3.0 4.3 98 0.1 SW 2 4 1 2 1029.6 - 0.0
20/11:00pm 4.8 2.1 3.6 92 0.5 SW 7 9 4 5 1029.5 1030.2 0.0
20/10:30pm 5.5 4.3 4.6 94 0.4 CALM 0 0 0 0 1029.4 - 0.0
20/10:00pm 5.3 4.1 4.6 95 0.3 CALM 0 0 0 0 1029.3 1030.0 0.0
20/09:30pm 5.5 4.0 4.9 96 0.3 SW 2 4 1 2 1029.2 - 0.0
20/09:00pm 5.7 3.3 4.5 92 0.5 SW 6 7 3 4 1028.9 1029.5 0.0
20/08:30pm 6.0 3.5 4.6 91 0.6 SW 7 7 4 4 1028.8 - 0.0
20/08:00pm 6.6 5.2 5.7 94 0.4 W 2 4 1 2 1028.5 1029.1 0.0
20/07:30pm 6.6 4.9 5.9 95 0.3 WNW 4 4 2 2 1028.2 - 0.0
20/07:00pm 6.7 5.0 5.7 93 0.5 NW 4 6 2 3 1027.9 1028.5 0.0
20/06:30pm 7.5 5.2 5.8 89 0.8 N 7 7 4 4 1027.5 - 0.0
20/06:00pm 7.8 5.4 5.4 85 1.1 N 7 9 4 5 1027.1 1027.7 0.0
20/05:30pm 8.9 6.2 5.5 79 1.6 N 9 13 5 7 1026.7 - 0.0
20/05:00pm 9.9 6.5 5.7 75 1.9 NNW 13 15 7 8 1026.3 1026.8 0.0
20/04:30pm 11.4 8.7 3.9 60 3.4 E 7 9 4 5 1025.9 - 0.0
20/04:00pm 11.7 8.6 3.7 58 3.6 ESE 9 13 5 7 1025.8 1026.4 0.0
20/03:30pm 12.2 9.4 3.4 55 4.0 ESE 7 13 4 7 1025.7 - 0.0
20/03:00pm 12.5 10.7 3.5 54 4.1 NNE 2 6 1 3 1025.5 1026.1 0.0
20/02:30pm 12.3 10.6 3.8 56 3.9 ESE 2 7 1 4 1025.4 - 0.0
20/02:00pm 12.2 9.3 4.7 60 3.5 E 9 15 5 8 1025.3 1025.9 0.0
20/01:30pm 11.7 8.9 3.0 55 3.9 E 7 11 4 6 1025.2 - 0.0
20/01:00pm 11.7 9.0 3.7 58 3.6 E 7 13 4 7 1025.4 1026.0 0.0
20/12:30pm 11.4 8.2 3.2 57 3.7 E 9 17 5 9 1025.7 - 0.0
20/12:00pm 11.1 7.7 4.1 62 3.2 E 11 17 6 9 1025.8 1026.4 0.0
20/11:30am 10.3 7.2 3.6 63 3.0 SE 9 15 5 8 1026.0 - 0.0
20/11:00am 9.8 6.4 4.0 67 2.6 ESE 11 15 6 8 1026.1 1026.7 0.0
20/10:30am 9.2 7.1 3.8 69 2.4 SE 4 7 2 4 1026.0 - 0.0
20/10:00am 8.1 5.5 3.2 71 2.1 ESE 6 7 3 4 1025.9 1026.5 0.0
20/09:30am 7.5 5.6 3.0 73 1.9 ESE 2 4 1 2 1025.8 - 0.0
20/09:00am 6.6 5.4 4.6 87 0.9 CALM 0 0 0 0 1025.6 1026.2 0.0
20/08:30am 4.3 2.7 2.7 89 0.7 CALM 0 0 0 0 1025.4 - 0.0
20/08:00am 3.0 1.3 2.0 93 0.4 CALM 0 0 0 0 1025.1 1025.7 0.0
20/07:30am 1.9 -0.2 1.8 99 0.0 S 2 6 1 3 1024.7 - 0.0
20/07:00am 2.3 -0.1 2.0 98 0.1 WSW 4 6 2 3 1024.3 1024.9 0.0
20/06:30am 1.4 -1.1 1.3 99 0.0 WSW 4 6 2 3 1023.8 - 0.0
20/06:00am 2.3 0.2 1.6 95 0.3 NNE 2 4 1 2 1023.7 1024.3 0.0
20/05:30am 2.3 -0.1 2.0 98 0.1 ESE 4 6 2 3 1023.7 - 0.0
20/05:00am 2.0 -0.2 1.1 94 0.3 NE 2 4 1 2 1023.5 1024.1 0.0
20/04:30am 3.0 0.6 2.1 94 0.4 N 4 6 2 3 1023.2 - 0.0
20/04:00am 3.1 0.7 2.4 95 0.3 N 4 6 2 3 1023.2 1023.7 0.0
20/03:30am 2.8 0.3 1.8 93 0.4 N 4 6 2 3 1023.3 - 0.0
20/03:00am 3.3 0.5 2.3 93 0.4 N 6 7 3 4 1023.2 1023.7 0.0
20/02:30am 3.0 0.2 2.0 93 0.4 NNW 6 6 3 3 1023.2 - 0.0
20/02:00am 3.5 1.1 2.3 92 0.5 WNW 4 4 2 2 1023.4 1023.9 0.0
20/01:30am 3.6 0.8 2.3 91 0.5 N 6 6 3 3 1023.4 - 0.0
20/01:00am 3.6 0.8 2.3 91 0.5 NW 6 7 3 4 1023.3 1023.8 0.0
20/12:30am 4.5 1.8 2.5 87 0.8 WSW 6 7 3 4 1023.3 - 0.0
20/12:00am 4.9 2.6 2.8 86 0.9 SSW 4 6 2 3 1023.3 1023.8 0.0
 
Date/Time
EST
Temp
°C
App
Temp
°C
Dew
Point
Rel
Hum
%
Delta-T
°C
Wind Press
QNH
hPa
Press
MSL
hPa
Rain
since 9 am
mm
Dir
 
Spd
km/h
Gust
km/h
Spd
kts
Gust
kts
19/11:30pm 4.7 2.0 2.6 86 0.9 SSW 6 9 3 5 1023.3 - 0.0
19/11:00pm 4.9 1.7 2.8 86 0.9 SSW 9 11 5 6 1023.3 1023.8 0.0
19/10:30pm 4.7 2.9 3.7 93 0.4 SSW 2 4 1 2 1023.3 - 0.0
19/10:00pm 4.2 2.8 3.3 94 0.4 CALM 0 4 0 2 1023.3 1023.8 0.0
19/09:30pm 5.4 2.7 2.6 82 1.2 SW 6 7 3 4 1023.3 - 0.0
19/09:00pm 5.9 3.3 3.2 83 1.1 SW 6 7 3 4 1023.2 1023.7 0.0
19/08:30pm 5.9 3.5 4.4 90 0.7 SSW 6 9 3 5 1023.2 - 0.0
19/08:00pm 5.0 2.9 4.1 94 0.4 S 4 6 2 3 1022.8 1023.3 0.0
19/07:30pm 6.3 4.6 4.0 85 1.0 SW 2 6 1 3 1022.8 - 0.0
19/07:00pm 6.6 4.8 5.2 91 0.6 WSW 4 6 2 3 1022.4 1023.0 0.0
19/06:30pm 7.0 5.2 5.2 88 0.8 SE 4 4 2 2 1022.1 - 0.0
19/06:00pm 7.3 5.4 5.1 86 1.0 NE 4 4 2 2 1021.8 1022.4 0.0
19/05:30pm 7.8 5.5 4.9 82 1.3 N 6 9 3 5 1021.6 - 0.0
19/05:00pm 8.8 5.6 5.2 78 1.6 N 11 13 6 7 1021.4 1022.0 0.0
19/04:30pm 9.6 6.5 5.6 76 1.9 N 11 15 6 8 1021.5 - 0.0
19/04:00pm 10.1 6.7 5.7 74 2.0 N 13 19 7 10 1021.4 1022.0 0.0
19/03:30pm 10.6 7.3 6.2 74 2.1 N 13 17 7 9 1021.4 - 0.0
19/03:00pm 11.0 7.3 6.4 73 2.2 N 15 19 8 10 1021.4 1022.0 0.0
19/02:30pm 11.6 8.4 5.0 64 3.1 NNW 11 17 6 9 1021.3 - 0.0
19/02:00pm 11.7 9.2 4.7 62 3.2 NW 7 15 4 8 1021.3 1021.9 0.0
19/01:30pm 12.1 10.1 4.6 60 3.5 NNW 4 9 2 5 1021.7 - 0.0
19/01:00pm 11.5 9.4 3.8 59 3.5 N 4 11 2 6 1022.1 1022.7 0.0
19/12:30pm 10.0 7.8 3.1 62 3.0 SSE 4 7 2 4 1022.5 - 0.0
19/12:00pm 9.8 7.8 2.4 60 3.2 ESE 2 6 1 3 1023.1 1023.6 0.0
19/11:30am 9.1 7.1 2.4 63 2.9 S 2 4 1 2 1023.6 - 0.0
19/11:00am 8.8 6.9 2.8 66 2.6 NW 2 7 1 4 1023.9 1024.5 0.0
19/10:30am 7.7 5.4 2.6 70 2.2 S 4 7 2 4 1024.0 - 0.0
19/10:00am 6.9 4.2 2.4 73 1.9 W 6 7 3 4 1024.1 1024.7 0.0
19/09:30am 6.5 4.2 2.6 76 1.6 SW 4 6 2 3 1024.0 - 0.0
19/09:00am 6.2 4.5 1.9 74 1.8 CALM 0 4 0 2 1024.1 1024.7 0.2
19/08:30am 4.2 1.4 2.2 87 0.8 SW 6 7 3 4 1024.0 - 0.2
19/08:00am 2.9 0.0 1.6 91 0.5 SW 6 9 3 5 1023.9 1024.5 0.2
19/07:30am 2.7 0.7 2.1 96 0.2 SW 2 4 1 2 1023.6 - 0.0
19/07:00am 1.9 0.2 1.8 99 0.0 CALM 0 0 0 0 1023.3 1023.8 0.0
19/06:30am 2.4 0.3 2.0 97 0.2 WSW 2 6 1 3 1023.2 - 0.0
19/06:00am 2.0 0.3 1.9 99 0.0 CALM 0 0 0 0 1023.0 1023.5 0.0
19/05:30am 2.9 1.4 2.8 99 0.0 CALM 0 0 0 0 1023.0 - 0.0
19/05:00am 2.2 0.5 2.1 99 0.0 CALM 0 6 0 3 1022.9 1023.4 0.0
19/04:30am 3.7 1.8 3.1 96 0.2 W 2 2 1 1 1022.7 - 0.0
19/04:00am 3.5 1.8 1.7 88 0.7 CALM 0 0 0 0 1022.7 1023.2 0.0
19/03:30am 3.4 1.6 3.3 99 0.0 SW 2 4 1 2 1022.7 - 0.0
19/03:00am 3.0 1.5 2.9 99 0.0 CALM 0 0 0 0 1022.8 1023.3 0.0
19/02:30am 5.0 2.8 3.5 90 0.6 S 4 9 2 5 1023.1 - 0.0
19/02:00am 4.4 2.3 4.0 97 0.2 SSW 4 6 2 3 1023.3 1023.8 0.0
19/01:30am 4.0 1.8 3.1 94 0.4 S 4 6 2 3 1023.2 - 0.0
19/01:00am 4.7 2.3 4.4 98 0.1 SW 6 7 3 4 1023.4 1023.9 0.0
19/12:30am 4.7 3.5 4.6 99 0.0 CALM 0 2 0 1 1023.3 - 0.0
19/12:00am 4.6 3.3 4.3 98 0.1 CALM 0 0 0 0 1023.2 1023.7 0.0
 
Date/Time
EST
Temp
°C
App
Temp
°C
Dew
Point
Rel
Hum
%
Delta-T
°C
Wind Press
QNH
hPa
Press
MSL
hPa
Rain
since 9 am
mm
Dir
 
Spd
km/h
Gust
km/h
Spd
kts
Gust
kts
18/11:30pm 4.9 2.6 2.9 87 0.8 SE 4 6 2 3 1023.3 - 0.0
18/11:00pm 5.4 2.8 3.1 85 1.0 SE 6 9 3 5 1023.3 1023.8 0.0
18/10:30pm 5.2 3.2 4.3 94 0.4 ESE 4 6 2 3 1023.4 - 0.0
18/10:00pm 5.8 4.6 4.4 91 0.6 CALM 0 0 0 0 1023.3 1023.8 0.0
18/09:30pm 5.9 4.7 4.4 90 0.7 CALM 0 0 0 0 1023.2 - 0.0
18/09:00pm 5.9 4.7 4.5 91 0.6 CALM 0 4 0 2 1023.2 1023.7 0.0
18/08:30pm 5.8 3.4 4.3 90 0.7 S 6 7 3 4 1022.9 - 0.0
18/08:00pm 6.3 5.0 4.0 85 1.0 CALM 0 0 0 0 1022.8 1023.3 0.0
18/07:30pm 7.5 6.3 4.5 81 1.3 CALM 0 0 0 0 1022.7 - 0.0
18/07:00pm 7.9 6.6 4.1 77 1.7 CALM 0 0 0 0 1022.5 1023.1 0.0
18/06:30pm 7.8 6.5 4.2 78 1.6 CALM 0 0 0 0 1022.2 - 0.0
18/06:00pm 8.3 6.6 3.9 74 1.9 ENE 2 4 1 2 1022.0 1022.6 0.0
18/05:30pm 8.7 6.6 3.9 72 2.1 E 4 6 2 3 1021.6 - 0.0
18/05:00pm 9.2 6.5 3.8 69 2.4 ENE 7 9 4 5 1021.3 1021.9 0.0
18/04:30pm 10.2 7.7 4.6 68 2.6 ENE 7 9 4 5 1021.1 - 0.0

Other Formats:

Comma delimited format used in spreadsheet applications
http://www.bom.gov.au/fwo/IDT60801/IDT60801.94955.axf

JavaScript Object Notation format (JSON) in row-major order
http://www.bom.gov.au/fwo/IDT60801/IDT60801.94955.json